Terminal Aerodrome Forecast
Issued by NWS

Home | Current Version | Previous Version | Text Only | Print | Product List | Glossary On
Versions: 1 2 3 4 5 6 7 8 9 10 11 12 13 14 15 16 17 18 19 20 21 22 23 24 25 26 27 28 29 30 31 32 33 34 35 36 37 38 39 40 41 42 43
000
FTPA31 PHFO 022300
TAFLNY
TAF
PHNY 022330Z 0300/0324 31008KT P6SM SCT015 BKN030
      TEMPO 0300/0304 -RA OVC020
     FM030400 VRB04KT P6SM FEW010 SCT030
     FM032000 25008KT P6SM SCT015 BKN035
      AMD NOT SKED=

USA.gov is the U.S. government's official web portal to all federal, state and local government web resources and services.